Aérodrome :
LOGIN :

S'inscrire | Disclaimer

   EN    FR    IT 

 










Légende :    VFR   VFR Marginal   IFR   IFR Intensif   IFR Très Intensif
Visi : 
Plafond : 
>= 8 km
>= 3000ft
5 à 8 km
1000 à 3000 ft
1500m à 5 km
500 à 1000 ft
800 à 1500m
200 à 500 ft
< 800m
< 200 ft
Symboles :   Orages  Brouillard  Fortes neiges  Fortes précipitations  Vent > 20 kt
SIGMETs :   Divers  Orages  Givrage  Turbulence  Onde Orograph.  Cendres Volcan.






- Altitude de l'aérodrome : 485 ft
- Code IATA : QSA


LELL - Sabadell

DERNIER METAR :
  • 232030Z AUTO 22003KT 180V280 CAVOK 21/14 Q1018

METARs EXPIRÉS :
  • 232000Z AUTO 20003KT 170V230 CAVOK 21/14 Q1018
  • 231930Z 18006KT 150V210 9999 FEW050 22/14 Q1017
  • 231900Z 18005KT 130V200 9999 FEW050 23/14 Q1017
  • 231830Z 26005KT 220V300 9999 FEW050 24/12 Q1017
  • 231800Z 25007KT 210V280 9999 FEW050 24/13 Q1017

TAF TAF LELL
Valide du 23 à 15h jusqu'au 24 à 15h UTC


231400Z 2315/2415 28008KT 9999 FEW030 TX27/2413Z TN14/2406Z
BECMG 2408/2410 22010KT



MET'MAP, la Météo Aéronautique d'un coup d'oeil ! - Copyright ORBIFLY Décembre 2007 - Disclaimer

ORBIFLY MET'MAP TEAM :

Programmation & Développement : Alexandra Zaïnal
Sur une idée originale de : Baudouin d'Aumeries
Assistance à la programmation : Marc-Olivier Méhu
Soutien technique & logistique : Manuel Goepfert

Contact : metmap@orbifly.com




SOURCES & CREDITS :

   NOAA